sensor_id;sensor_type;location;lat;lon;timestamp;temperature;humidity
9919;DHT22;4998;51.024;13.828;2023-08-01T00:02:01;24.10;62.20
9919;DHT22;4998;51.024;13.828;2023-08-01T00:04:28;24.10;62.10
9919;DHT22;4998;51.024;13.828;2023-08-01T00:06:55;24.10;62.40
9919;DHT22;4998;51.024;13.828;2023-08-01T00:09:22;24.10;62.60
9919;DHT22;4998;51.024;13.828;2023-08-01T00:11:49;24.00;63.30
9919;DHT22;4998;51.024;13.828;2023-08-01T00:14:17;24.00;63.40
9919;DHT22;4998;51.024;13.828;2023-08-01T00:16:45;24.00;63.70
9919;DHT22;4998;51.024;13.828;2023-08-01T00:19:13;24.00;63.70
9919;DHT22;4998;51.024;13.828;2023-08-01T00:21:40;24.00;64.00
9919;DHT22;4998;51.024;13.828;2023-08-01T00:24:07;23.90;63.90
9919;DHT22;4998;51.024;13.828;2023-08-01T00:26:34;23.90;64.10
9919;DHT22;4998;51.024;13.828;2023-08-01T00:29:02;23.90;64.10
9919;DHT22;4998;51.024;13.828;2023-08-01T00:31:30;23.90;64.20
9919;DHT22;4998;51.024;13.828;2023-08-01T00:33:57;23.80;64.10
9919;DHT22;4998;51.024;13.828;2023-08-01T00:36:24;23.80;65.10
9919;DHT22;4998;51.024;13.828;2023-08-01T00:38:51;23.80;64.30
9919;DHT22;4998;51.024;13.828;2023-08-01T00:41:18;23.80;64.30
9919;DHT22;4998;51.024;13.828;2023-08-01T00:43:45;23.80;64.40
9919;DHT22;4998;51.024;13.828;2023-08-01T00:46:12;23.80;64.60
9919;DHT22;4998;51.024;13.828;2023-08-01T00:48:40;23.80;64.60
9919;DHT22;4998;51.024;13.828;2023-08-01T00:51:08;23.80;64.50
9919;DHT22;4998;51.024;13.828;2023-08-01T00:53:38;23.80;64.50
9919;DHT22;4998;51.024;13.828;2023-08-01T00:56:05;23.80;64.40
9919;DHT22;4998;51.024;13.828;2023-08-01T00:58:32;23.80;64.40
9919;DHT22;4998;51.024;13.828;2023-08-01T01:00:59;23.80;64.40
9919;DHT22;4998;51.024;13.828;2023-08-01T01:03:26;23.80;64.80
9919;DHT22;4998;51.024;13.828;2023-08-01T01:06:00;23.80;65.70
9919;DHT22;4998;51.024;13.828;2023-08-01T01:08:28;23.80;64.60
9919;DHT22;4998;51.024;13.828;2023-08-01T01:10:55;23.80;64.30
9919;DHT22;4998;51.024;13.828;2023-08-01T01:13:22;23.80;64.40
9919;DHT22;4998;51.024;13.828;2023-08-01T01:15:49;23.80;64.30
9919;DHT22;4998;51.024;13.828;2023-08-01T01:18:16;23.80;64.40
9919;DHT22;4998;51.024;13.828;2023-08-01T01:20:44;23.80;64.40
9919;DHT22;4998;51.024;13.828;2023-08-01T01:23:11;23.70;64.30
9919;DHT22;4998;51.024;13.828;2023-08-01T01:25:39;23.70;64.40
9919;DHT22;4998;51.024;13.828;2023-08-01T01:28:07;23.70;64.70
9919;DHT22;4998;51.024;13.828;2023-08-01T01:30:35;23.70;64.80
9919;DHT22;4998;51.024;13.828;2023-08-01T01:33:03;23.70;64.80
9919;DHT22;4998;51.024;13.828;2023-08-01T01:35:33;23.70;64.90
9919;DHT22;4998;51.024;13.828;2023-08-01T01:38:02;23.70;65.10
9919;DHT22;4998;51.024;13.828;2023-08-01T01:40:30;23.70;65.20
9919;DHT22;4998;51.024;13.828;2023-08-01T01:42:57;23.70;65.10
9919;DHT22;4998;51.024;13.828;2023-08-01T01:45:24;23.70;65.20
9919;DHT22;4998;51.024;13.828;2023-08-01T01:47:51;23.70;65.00
9919;DHT22;4998;51.024;13.828;2023-08-01T01:50:18;23.70;65.00
9919;DHT22;4998;51.024;13.828;2023-08-01T01:52:45;23.60;64.60
9919;DHT22;4998;51.024;13.828;2023-08-01T01:55:13;23.60;64.40
9919;DHT22;4998;51.024;13.828;2023-08-01T01:57:41;23.60;64.40
9919;DHT22;4998;51.024;13.828;2023-08-01T02:00:08;23.60;64.40
9919;DHT22;4998;51.024;13.828;2023-08-01T02:02:36;23.60;64.30
9919;DHT22;4998;51.024;13.828;2023-08-01T02:05:03;23.70;64.40
9919;DHT22;4998;51.024;13.828;2023-08-01T02:07:30;23.70;64.30
9919;DHT22;4998;51.024;13.828;2023-08-01T02:09:59;23.60;64.40
9919;DHT22;4998;51.024;13.828;2023-08-01T02:12:28;23.70;64.50
9919;DHT22;4998;51.024;13.828;2023-08-01T02:14:57;23.70;65.00
9919;DHT22;4998;51.024;13.828;2023-08-01T02:17:24;23.70;65.40
9919;DHT22;4998;51.024;13.828;2023-08-01T02:19:51;23.70;65.90
9919;DHT22;4998;51.024;13.828;2023-08-01T02:22:18;23.60;66.00
9919;DHT22;4998;51.024;13.828;2023-08-01T02:24:45;23.60;66.30
9919;DHT22;4998;51.024;13.828;2023-08-01T02:27:12;23.60;66.70
9919;DHT22;4998;51.024;13.828;2023-08-01T02:29:40;23.50;67.00
9919;DHT22;4998;51.024;13.828;2023-08-01T02:32:08;23.50;67.30
9919;DHT22;4998;51.024;13.828;2023-08-01T02:34:35;23.40;67.60
9919;DHT22;4998;51.024;13.828;2023-08-01T02:37:02;23.30;68.00
9919;DHT22;4998;51.024;13.828;2023-08-01T02:39:29;23.30;68.40
9919;DHT22;4998;51.024;13.828;2023-08-01T02:41:56;23.30;68.90
9919;DHT22;4998;51.024;13.828;2023-08-01T02:44:23;23.20;69.10
9919;DHT22;4998;51.024;13.828;2023-08-01T02:46:51;23.20;69.50
9919;DHT22;4998;51.024;13.828;2023-08-01T02:49:18;23.20;69.90
9919;DHT22;4998;51.024;13.828;2023-08-01T02:51:45;23.10;70.00
9919;DHT22;4998;51.024;13.828;2023-08-01T02:54:12;23.10;70.50
9919;DHT22;4998;51.024;13.828;2023-08-01T02:56:39;23.10;70.90
9919;DHT22;4998;51.024;13.828;2023-08-01T02:59:07;23.10;71.40
9919;DHT22;4998;51.024;13.828;2023-08-01T03:01:35;23.10;71.60
9919;DHT22;4998;51.024;13.828;2023-08-01T03:04:04;23.00;71.70
9919;DHT22;4998;51.024;13.828;2023-08-01T03:06:32;23.00;72.00
9919;DHT22;4998;51.024;13.828;2023-08-01T03:08:59;23.00;72.20
9919;DHT22;4998;51.024;13.828;2023-08-01T03:11:27;22.90;72.20
9919;DHT22;4998;51.024;13.828;2023-08-01T03:13:54;22.90;72.50
9919;DHT22;4998;51.024;13.828;2023-08-01T03:16:21;22.90;72.80
9919;DHT22;4998;51.024;13.828;2023-08-01T03:18:48;22.90;73.00
9919;DHT22;4998;51.024;13.828;2023-08-01T03:21:16;22.80;73.20
9919;DHT22;4998;51.024;13.828;2023-08-01T03:23:43;22.80;73.90
9919;DHT22;4998;51.024;13.828;2023-08-01T03:26:10;22.80;74.00
9919;DHT22;4998;51.024;13.828;2023-08-01T03:28:38;22.80;74.30
9919;DHT22;4998;51.024;13.828;2023-08-01T03:31:05;22.70;74.40
9919;DHT22;4998;51.024;13.828;2023-08-01T03:33:32;22.70;74.80
9919;DHT22;4998;51.024;13.828;2023-08-01T03:35:59;22.60;75.00
9919;DHT22;4998;51.024;13.828;2023-08-01T03:38:28;22.70;74.70
9919;DHT22;4998;51.024;13.828;2023-08-01T03:40:55;22.60;75.40
9919;DHT22;4998;51.024;13.828;2023-08-01T03:43:22;22.60;75.40
9919;DHT22;4998;51.024;13.828;2023-08-01T03:45:50;22.50;75.60
9919;DHT22;4998;51.024;13.828;2023-08-01T03:48:17;22.50;75.90
9919;DHT22;4998;51.024;13.828;2023-08-01T03:50:44;22.50;76.00
9919;DHT22;4998;51.024;13.828;2023-08-01T03:53:11;22.50;76.20
9919;DHT22;4998;51.024;13.828;2023-08-01T03:55:39;22.50;76.50
9919;DHT22;4998;51.024;13.828;2023-08-01T03:58:08;22.50;76.90
9919;DHT22;4998;51.024;13.828;2023-08-01T04:00:35;22.50;77.80
9919;DHT22;4998;51.024;13.828;2023-08-01T04:03:02;22.50;77.10
9919;DHT22;4998;51.024;13.828;2023-08-01T04:05:29;22.50;76.90
9919;DHT22;4998;51.024;13.828;2023-08-01T04:07:56;22.50;77.40
9919;DHT22;4998;51.024;13.828;2023-08-01T04:10:23;22.50;77.80
9919;DHT22;4998;51.024;13.828;2023-08-01T04:12:52;22.50;78.60
9919;DHT22;4998;51.024;13.828;2023-08-01T04:15:19;22.50;78.10
9919;DHT22;4998;51.024;13.828;2023-08-01T04:17:46;22.50;77.90
9919;DHT22;4998;51.024;13.828;2023-08-01T04:20:13;22.50;78.20
9919;DHT22;4998;51.024;13.828;2023-08-01T04:22:40;22.50;78.20
9919;DHT22;4998;51.024;13.828;2023-08-01T04:25:08;22.50;78.40
9919;DHT22;4998;51.024;13.828;2023-08-01T04:27:35;22.50;78.60
9919;DHT22;4998;51.024;13.828;2023-08-01T04:30:04;22.50;78.60
9919;DHT22;4998;51.024;13.828;2023-08-01T04:32:31;22.50;78.90
9919;DHT22;4998;51.024;13.828;2023-08-01T04:34:58;22.50;78.90
9919;DHT22;4998;51.024;13.828;2023-08-01T04:37:25;22.50;79.00
9919;DHT22;4998;51.024;13.828;2023-08-01T04:39:52;22.50;79.10
9919;DHT22;4998;51.024;13.828;2023-08-01T04:42:19;22.50;79.30
9919;DHT22;4998;51.024;13.828;2023-08-01T04:44:46;22.60;79.40
9919;DHT22;4998;51.024;13.828;2023-08-01T04:47:15;22.60;79.50
9919;DHT22;4998;51.024;13.828;2023-08-01T04:49:42;22.60;79.90
9919;DHT22;4998;51.024;13.828;2023-08-01T04:52:09;22.60;79.80
9919;DHT22;4998;51.024;13.828;2023-08-01T04:54:35;22.60;80.00
9919;DHT22;4998;51.024;13.828;2023-08-01T04:57:03;22.60;80.10
9919;DHT22;4998;51.024;13.828;2023-08-01T04:59:30;22.60;80.20
9919;DHT22;4998;51.024;13.828;2023-08-01T05:01:57;22.60;80.30
9919;DHT22;4998;51.024;13.828;2023-08-01T05:04:26;22.60;80.40
9919;DHT22;4998;51.024;13.828;2023-08-01T05:06:53;22.60;80.70
9919;DHT22;4998;51.024;13.828;2023-08-01T05:09:20;22.70;80.80
9919;DHT22;4998;51.024;13.828;2023-08-01T05:11:47;22.70;81.00
9919;DHT22;4998;51.024;13.828;2023-08-01T05:14:14;22.70;81.20
9919;DHT22;4998;51.024;13.828;2023-08-01T05:16:41;22.60;81.30
9919;DHT22;4998;51.024;13.828;2023-08-01T05:19:08;22.70;81.80
9919;DHT22;4998;51.024;13.828;2023-08-01T05:21:36;22.70;82.00
9919;DHT22;4998;51.024;13.828;2023-08-01T05:24:03;22.60;82.40
9919;DHT22;4998;51.024;13.828;2023-08-01T05:26:30;22.70;82.50
9919;DHT22;4998;51.024;13.828;2023-08-01T05:28:57;22.70;82.70
9919;DHT22;4998;51.024;13.828;2023-08-01T05:31:24;22.70;83.00
9919;DHT22;4998;51.024;13.828;2023-08-01T05:33:51;22.70;84.00
9919;DHT22;4998;51.024;13.828;2023-08-01T05:36:18;22.70;83.30
9919;DHT22;4998;51.024;13.828;2023-08-01T05:38:47;22.60;83.30
9919;DHT22;4998;51.024;13.828;2023-08-01T05:41:14;22.60;83.70
9919;DHT22;4998;51.024;13.828;2023-08-01T05:43:41;22.70;83.80
9919;DHT22;4998;51.024;13.828;2023-08-01T05:46:08;22.70;83.90
9919;DHT22;4998;51.024;13.828;2023-08-01T05:48:34;22.70;84.10
9919;DHT22;4998;51.024;13.828;2023-08-01T05:51:01;22.70;84.20
9919;DHT22;4998;51.024;13.828;2023-08-01T05:53:28;22.70;84.30
9919;DHT22;4998;51.024;13.828;2023-08-01T05:55:57;22.70;84.50
9919;DHT22;4998;51.024;13.828;2023-08-01T05:58:24;22.70;84.80
9919;DHT22;4998;51.024;13.828;2023-08-01T06:00:51;22.70;85.00
9919;DHT22;4998;51.024;13.828;2023-08-01T06:03:18;22.80;85.20
9919;DHT22;4998;51.024;13.828;2023-08-01T06:05:45;22.80;85.20
9919;DHT22;4998;51.024;13.828;2023-08-01T06:08:12;22.80;85.30
9919;DHT22;4998;51.024;13.828;2023-08-01T06:10:41;22.80;85.60
9919;DHT22;4998;51.024;13.828;2023-08-01T06:13:09;22.80;85.70
9919;DHT22;4998;51.024;13.828;2023-08-01T06:15:36;22.80;85.90
9919;DHT22;4998;51.024;13.828;2023-08-01T06:18:04;22.90;85.80
9919;DHT22;4998;51.024;13.828;2023-08-01T06:20:31;22.90;86.00
9919;DHT22;4998;51.024;13.828;2023-08-01T06:22:58;22.90;86.00
9919;DHT22;4998;51.024;13.828;2023-08-01T06:25:25;22.90;86.10
9919;DHT22;4998;51.024;13.828;2023-08-01T06:27:52;23.00;86.10
9919;DHT22;4998;51.024;13.828;2023-08-01T06:30:20;23.00;86.20
9919;DHT22;4998;51.024;13.828;2023-08-01T06:32:47;23.00;86.20
9919;DHT22;4998;51.024;13.828;2023-08-01T06:35:14;23.00;86.20
9919;DHT22;4998;51.024;13.828;2023-08-01T06:37:41;23.00;86.30
9919;DHT22;4998;51.024;13.828;2023-08-01T06:40:09;23.10;86.60
9919;DHT22;4998;51.024;13.828;2023-08-01T06:42:36;23.10;86.90
9919;DHT22;4998;51.024;13.828;2023-08-01T06:45:04;23.10;86.90
9919;DHT22;4998;51.024;13.828;2023-08-01T06:47:32;23.10;87.20
9919;DHT22;4998;51.024;13.828;2023-08-01T06:49:59;23.20;87.40
9919;DHT22;4998;51.024;13.828;2023-08-01T06:52:26;23.20;87.10
9919;DHT22;4998;51.024;13.828;2023-08-01T06:54:54;23.20;87.10
9919;DHT22;4998;51.024;13.828;2023-08-01T06:57:20;23.20;88.10
9919;DHT22;4998;51.024;13.828;2023-08-01T06:59:47;23.20;87.40
9919;DHT22;4998;51.024;13.828;2023-08-01T07:02:14;23.20;87.50
9919;DHT22;4998;51.024;13.828;2023-08-01T07:04:43;23.20;87.60
9919;DHT22;4998;51.024;13.828;2023-08-01T07:07:10;23.20;87.80
9919;DHT22;4998;51.024;13.828;2023-08-01T07:09:37;23.20;87.70
9919;DHT22;4998;51.024;13.828;2023-08-01T07:12:05;23.20;88.00
9919;DHT22;4998;51.024;13.828;2023-08-01T07:14:32;23.20;88.20
9919;DHT22;4998;51.024;13.828;2023-08-01T07:16:59;23.20;88.40
9919;DHT22;4998;51.024;13.828;2023-08-01T07:19:26;23.20;88.40
9919;DHT22;4998;51.024;13.828;2023-08-01T07:21:55;23.20;88.60
9919;DHT22;4998;51.024;13.828;2023-08-01T07:24:22;23.30;88.80
9919;DHT22;4998;51.024;13.828;2023-08-01T07:26:49;23.30;89.00
9919;DHT22;4998;51.024;13.828;2023-08-01T07:29:16;23.30;89.10
9919;DHT22;4998;51.024;13.828;2023-08-01T07:31:43;23.40;90.10
9919;DHT22;4998;51.024;13.828;2023-08-01T07:34:10;23.50;89.80
9919;DHT22;4998;51.024;13.828;2023-08-01T07:36:37;23.50;90.00
9919;DHT22;4998;51.024;13.828;2023-08-01T07:39:05;23.60;90.00
9919;DHT22;4998;51.024;13.828;2023-08-01T07:41:32;23.60;90.10
9919;DHT22;4998;51.024;13.828;2023-08-01T07:44:01;23.70;90.00
9919;DHT22;4998;51.024;13.828;2023-08-01T07:46:28;23.70;90.00
9919;DHT22;4998;51.024;13.828;2023-08-01T07:48:55;23.80;89.50
9919;DHT22;4998;51.024;13.828;2023-08-01T07:51:22;23.90;89.40
9919;DHT22;4998;51.024;13.828;2023-08-01T07:53:51;24.00;89.20
9919;DHT22;4998;51.024;13.828;2023-08-01T07:56:19;24.00;88.00
9919;DHT22;4998;51.024;13.828;2023-08-01T07:58:47;24.00;87.50
9919;DHT22;4998;51.024;13.828;2023-08-01T08:01:13;24.10;87.60
9919;DHT22;4998;51.024;13.828;2023-08-01T08:03:40;24.10;87.60
9919;DHT22;4998;51.024;13.828;2023-08-01T08:06:07;24.10;87.20
9919;DHT22;4998;51.024;13.828;2023-08-01T08:08:35;24.10;86.60
9919;DHT22;4998;51.024;13.828;2023-08-01T08:11:02;24.10;86.60
9919;DHT22;4998;51.024;13.828;2023-08-01T08:13:31;24.10;86.70
9919;DHT22;4998;51.024;13.828;2023-08-01T08:15:58;24.10;86.80
9919;DHT22;4998;51.024;13.828;2023-08-01T08:18:25;24.20;86.60
9919;DHT22;4998;51.024;13.828;2023-08-01T08:20:52;24.20;86.50
9919;DHT22;4998;51.024;13.828;2023-08-01T08:23:19;24.30;86.60
9919;DHT22;4998;51.024;13.828;2023-08-01T08:25:46;24.30;86.80
9919;DHT22;4998;51.024;13.828;2023-08-01T08:28:16;24.30;86.90
9919;DHT22;4998;51.024;13.828;2023-08-01T08:30:44;24.40;87.10
9919;DHT22;4998;51.024;13.828;2023-08-01T08:33:20;24.50;86.80
9919;DHT22;4998;51.024;13.828;2023-08-01T08:35:47;24.60;86.40
9919;DHT22;4998;51.024;13.828;2023-08-01T08:38:14;24.70;86.20
9919;DHT22;4998;51.024;13.828;2023-08-01T08:40:48;24.80;86.10
9919;DHT22;4998;51.024;13.828;2023-08-01T08:43:19;24.80;85.70
9919;DHT22;4998;51.024;13.828;2023-08-01T08:45:49;24.90;85.30
9919;DHT22;4998;51.024;13.828;2023-08-01T08:48:18;25.00;84.50
9919;DHT22;4998;51.024;13.828;2023-08-01T08:50:46;25.00;83.80
9919;DHT22;4998;51.024;13.828;2023-08-01T08:53:14;25.10;83.60
9919;DHT22;4998;51.024;13.828;2023-08-01T08:55:41;25.10;83.10
9919;DHT22;4998;51.024;13.828;2023-08-01T08:58:08;25.20;82.80
9919;DHT22;4998;51.024;13.828;2023-08-01T09:00:36;25.20;82.00
9919;DHT22;4998;51.024;13.828;2023-08-01T09:03:05;25.20;81.50
9919;DHT22;4998;51.024;13.828;2023-08-01T09:05:37;25.20;81.50
9919;DHT22;4998;51.024;13.828;2023-08-01T09:08:10;25.20;81.10
9919;DHT22;4998;51.024;13.828;2023-08-01T09:10:39;25.20;80.80
9919;DHT22;4998;51.024;13.828;2023-08-01T09:13:07;25.20;80.70
9919;DHT22;4998;51.024;13.828;2023-08-01T09:15:35;25.20;80.40
9919;DHT22;4998;51.024;13.828;2023-08-01T09:18:07;25.20;80.50
9919;DHT22;4998;51.024;13.828;2023-08-01T09:20:41;25.30;80.50
9919;DHT22;4998;51.024;13.828;2023-08-01T09:23:09;25.30;80.40
9919;DHT22;4998;51.024;13.828;2023-08-01T09:25:36;25.30;79.70
9919;DHT22;4998;51.024;13.828;2023-08-01T09:28:15;25.40;79.40
9919;DHT22;4998;51.024;13.828;2023-08-01T09:30:49;25.40;79.00
9919;DHT22;4998;51.024;13.828;2023-08-01T09:33:18;25.40;78.90
9919;DHT22;4998;51.024;13.828;2023-08-01T09:35:46;25.40;78.80
9919;DHT22;4998;51.024;13.828;2023-08-01T09:38:14;25.30;78.90
9919;DHT22;4998;51.024;13.828;2023-08-01T09:40:42;25.30;79.00
9919;DHT22;4998;51.024;13.828;2023-08-01T09:43:10;25.20;79.00
9919;DHT22;4998;51.024;13.828;2023-08-01T09:45:37;25.20;79.50
9919;DHT22;4998;51.024;13.828;2023-08-01T09:48:04;25.20;78.90
9919;DHT22;4998;51.024;13.828;2023-08-01T09:50:33;25.20;78.80
9919;DHT22;4998;51.024;13.828;2023-08-01T09:53:07;25.10;78.30
9919;DHT22;4998;51.024;13.828;2023-08-01T09:55:35;25.10;78.10
9919;DHT22;4998;51.024;13.828;2023-08-01T09:58:03;25.10;78.20
9919;DHT22;4998;51.024;13.828;2023-08-01T10:00:31;25.10;78.60
9919;DHT22;4998;51.024;13.828;2023-08-01T10:02:59;25.20;78.40
9919;DHT22;4998;51.024;13.828;2023-08-01T10:05:29;25.20;77.60
9919;DHT22;4998;51.024;13.828;2023-08-01T10:07:59;25.20;77.50
9919;DHT22;4998;51.024;13.828;2023-08-01T10:10:27;25.20;77.10
9919;DHT22;4998;51.024;13.828;2023-08-01T10:12:56;25.30;76.70
9919;DHT22;4998;51.024;13.828;2023-08-01T10:15:24;25.30;76.30
9919;DHT22;4998;51.024;13.828;2023-08-01T10:17:52;25.40;76.00
9919;DHT22;4998;51.024;13.828;2023-08-01T10:20:19;25.40;75.70
9919;DHT22;4998;51.024;13.828;2023-08-01T10:22:48;25.40;75.20
9919;DHT22;4998;51.024;13.828;2023-08-01T10:25:17;25.40;75.10
9919;DHT22;4998;51.024;13.828;2023-08-01T10:27:45;25.40;75.00
9919;DHT22;4998;51.024;13.828;2023-08-01T10:30:12;25.50;74.50
9919;DHT22;4998;51.024;13.828;2023-08-01T10:32:39;25.50;73.90
9919;DHT22;4998;51.024;13.828;2023-08-01T10:35:07;25.50;73.60
9919;DHT22;4998;51.024;13.828;2023-08-01T10:37:41;25.50;72.90
9919;DHT22;4998;51.024;13.828;2023-08-01T10:40:09;25.60;72.30
9919;DHT22;4998;51.024;13.828;2023-08-01T10:42:42;25.60;72.70
9919;DHT22;4998;51.024;13.828;2023-08-01T10:45:20;25.60;72.20
9919;DHT22;4998;51.024;13.828;2023-08-01T10:47:48;25.60;72.00
9919;DHT22;4998;51.024;13.828;2023-08-01T10:50:15;25.70;72.40
9919;DHT22;4998;51.024;13.828;2023-08-01T10:52:43;25.80;72.40
9919;DHT22;4998;51.024;13.828;2023-08-01T10:55:10;25.80;72.00
9919;DHT22;4998;51.024;13.828;2023-08-01T10:57:39;25.90;71.90
9919;DHT22;4998;51.024;13.828;2023-08-01T11:00:08;26.00;71.10
9919;DHT22;4998;51.024;13.828;2023-08-01T11:02:36;26.10;71.30
9919;DHT22;4998;51.024;13.828;2023-08-01T11:05:05;26.10;71.10
9919;DHT22;4998;51.024;13.828;2023-08-01T11:07:33;26.20;71.00
9919;DHT22;4998;51.024;13.828;2023-08-01T11:10:06;26.30;70.60
9919;DHT22;4998;51.024;13.828;2023-08-01T11:12:35;26.40;69.80
9919;DHT22;4998;51.024;13.828;2023-08-01T11:15:05;26.50;69.50
9919;DHT22;4998;51.024;13.828;2023-08-01T11:17:35;26.60;68.90
9919;DHT22;4998;51.024;13.828;2023-08-01T11:20:04;26.60;67.70
9919;DHT22;4998;51.024;13.828;2023-08-01T11:22:33;26.70;67.10
9919;DHT22;4998;51.024;13.828;2023-08-01T11:25:00;26.70;67.20
9919;DHT22;4998;51.024;13.828;2023-08-01T11:27:28;26.80;67.30
9919;DHT22;4998;51.024;13.828;2023-08-01T11:29:56;26.80;66.60
9919;DHT22;4998;51.024;13.828;2023-08-01T11:32:35;26.80;66.20
9919;DHT22;4998;51.024;13.828;2023-08-01T11:35:02;26.90;65.50
9919;DHT22;4998;51.024;13.828;2023-08-01T11:37:30;27.00;65.40
9919;DHT22;4998;51.024;13.828;2023-08-01T11:39:58;27.00;64.50
9919;DHT22;4998;51.024;13.828;2023-08-01T11:42:28;27.00;64.40
9919;DHT22;4998;51.024;13.828;2023-08-01T11:45:07;27.10;64.40
9919;DHT22;4998;51.024;13.828;2023-08-01T11:47:36;27.10;63.50
9919;DHT22;4998;51.024;13.828;2023-08-01T11:50:05;27.20;63.20
9919;DHT22;4998;51.024;13.828;2023-08-01T11:52:32;27.20;63.10
9919;DHT22;4998;51.024;13.828;2023-08-01T11:54:59;27.20;63.20
9919;DHT22;4998;51.024;13.828;2023-08-01T11:57:27;27.20;62.20
9919;DHT22;4998;51.024;13.828;2023-08-01T11:59:55;27.20;62.40
9919;DHT22;4998;51.024;13.828;2023-08-01T12:02:23;27.20;62.10
9919;DHT22;4998;51.024;13.828;2023-08-01T12:04:52;27.20;62.40
9919;DHT22;4998;51.024;13.828;2023-08-01T12:07:20;27.20;62.00
9919;DHT22;4998;51.024;13.828;2023-08-01T12:09:55;27.20;62.10
9919;DHT22;4998;51.024;13.828;2023-08-01T12:12:23;27.20;62.00
9919;DHT22;4998;51.024;13.828;2023-08-01T12:14:50;27.20;61.40
9919;DHT22;4998;51.024;13.828;2023-08-01T12:17:18;27.10;61.30
9919;DHT22;4998;51.024;13.828;2023-08-01T12:19:45;27.10;61.20
9919;DHT22;4998;51.024;13.828;2023-08-01T12:22:14;27.00;60.90
9919;DHT22;4998;51.024;13.828;2023-08-01T12:24:41;26.90;60.90
9919;DHT22;4998;51.024;13.828;2023-08-01T12:27:09;26.80;61.30
9919;DHT22;4998;51.024;13.828;2023-08-01T12:29:36;26.70;62.10
9919;DHT22;4998;51.024;13.828;2023-08-01T12:32:04;26.50;62.50
9919;DHT22;4998;51.024;13.828;2023-08-01T12:34:34;26.20;63.00
9919;DHT22;4998;51.024;13.828;2023-08-01T12:37:01;25.90;63.70
9919;DHT22;4998;51.024;13.828;2023-08-01T12:39:29;25.60;64.60
9919;DHT22;4998;51.024;13.828;2023-08-01T12:41:56;25.20;65.70
9919;DHT22;4998;51.024;13.828;2023-08-01T12:44:23;24.90;66.60
9919;DHT22;4998;51.024;13.828;2023-08-01T12:46:50;24.60;67.70
9919;DHT22;4998;51.024;13.828;2023-08-01T12:49:18;24.30;68.60
9919;DHT22;4998;51.024;13.828;2023-08-01T12:51:45;24.10;69.80
9919;DHT22;4998;51.024;13.828;2023-08-01T12:54:12;23.90;70.90
9919;DHT22;4998;51.024;13.828;2023-08-01T12:56:40;23.70;71.70
9919;DHT22;4998;51.024;13.828;2023-08-01T12:59:07;23.50;72.70
9919;DHT22;4998;51.024;13.828;2023-08-01T13:01:34;23.40;73.20
9919;DHT22;4998;51.024;13.828;2023-08-01T13:04:01;23.20;73.90
9919;DHT22;4998;51.024;13.828;2023-08-01T13:06:28;23.10;75.00
9919;DHT22;4998;51.024;13.828;2023-08-01T13:08:55;22.90;75.60
9919;DHT22;4998;51.024;13.828;2023-08-01T13:11:22;22.90;76.70
9919;DHT22;4998;51.024;13.828;2023-08-01T13:13:51;22.80;77.90
9919;DHT22;4998;51.024;13.828;2023-08-01T13:16:17;22.80;79.40
9919;DHT22;4998;51.024;13.828;2023-08-01T13:18:44;22.80;80.20
9919;DHT22;4998;51.024;13.828;2023-08-01T13:21:13;22.80;81.50
9919;DHT22;4998;51.024;13.828;2023-08-01T13:23:41;22.90;82.30
9919;DHT22;4998;51.024;13.828;2023-08-01T13:26:08;22.90;82.80
9919;DHT22;4998;51.024;13.828;2023-08-01T13:28:35;23.00;83.50
9919;DHT22;4998;51.024;13.828;2023-08-01T13:31:03;23.10;84.20
9919;DHT22;4998;51.024;13.828;2023-08-01T13:33:30;23.30;85.20
9919;DHT22;4998;51.024;13.828;2023-08-01T13:35:57;23.40;85.30
9919;DHT22;4998;51.024;13.828;2023-08-01T13:38:24;23.50;85.10
9919;DHT22;4998;51.024;13.828;2023-08-01T13:40:51;23.70;84.70
9919;DHT22;4998;51.024;13.828;2023-08-01T13:43:18;23.80;84.20
9919;DHT22;4998;51.024;13.828;2023-08-01T13:45:45;23.90;84.00
9919;DHT22;4998;51.024;13.828;2023-08-01T13:48:14;24.00;83.70
9919;DHT22;4998;51.024;13.828;2023-08-01T13:50:41;24.10;83.30
9919;DHT22;4998;51.024;13.828;2023-08-01T13:53:08;24.20;83.30
9919;DHT22;4998;51.024;13.828;2023-08-01T13:55:37;24.20;82.80
9919;DHT22;4998;51.024;13.828;2023-08-01T13:58:04;24.30;83.00
9919;DHT22;4998;51.024;13.828;2023-08-01T14:00:32;24.30;83.30
9919;DHT22;4998;51.024;13.828;2023-08-01T14:02:59;24.40;82.60
9919;DHT22;4998;51.024;13.828;2023-08-01T14:05:28;24.50;82.70
9919;DHT22;4998;51.024;13.828;2023-08-01T14:07:55;24.50;81.80
9919;DHT22;4998;51.024;13.828;2023-08-01T14:10:22;24.50;81.40
9919;DHT22;4998;51.024;13.828;2023-08-01T14:12:49;24.50;81.50
9919;DHT22;4998;51.024;13.828;2023-08-01T14:15:16;24.60;81.40
9919;DHT22;4998;51.024;13.828;2023-08-01T14:17:43;24.60;80.90
9919;DHT22;4998;51.024;13.828;2023-08-01T14:20:11;24.60;80.40
9919;DHT22;4998;51.024;13.828;2023-08-01T14:22:41;24.60;80.00
9919;DHT22;4998;51.024;13.828;2023-08-01T14:25:08;24.60;79.20
9919;DHT22;4998;51.024;13.828;2023-08-01T14:27:35;24.70;79.20
9919;DHT22;4998;51.024;13.828;2023-08-01T14:30:03;24.70;78.70
9919;DHT22;4998;51.024;13.828;2023-08-01T14:32:31;24.60;78.10
9919;DHT22;4998;51.024;13.828;2023-08-01T14:34:58;24.60;78.30
9919;DHT22;4998;51.024;13.828;2023-08-01T14:37:25;24.60;78.00
9919;DHT22;4998;51.024;13.828;2023-08-01T14:39:54;24.70;78.20
9919;DHT22;4998;51.024;13.828;2023-08-01T14:42:21;24.70;78.20
9919;DHT22;4998;51.024;13.828;2023-08-01T14:44:51;24.70;78.20
9919;DHT22;4998;51.024;13.828;2023-08-01T14:47:19;24.70;78.20
9919;DHT22;4998;51.024;13.828;2023-08-01T14:49:46;24.80;78.50
9919;DHT22;4998;51.024;13.828;2023-08-01T14:52:13;25.00;79.00
9919;DHT22;4998;51.024;13.828;2023-08-01T14:54:40;25.00;79.10
9919;DHT22;4998;51.024;13.828;2023-08-01T14:57:09;25.00;78.50
9919;DHT22;4998;51.024;13.828;2023-08-01T14:59:36;25.20;77.50
9919;DHT22;4998;51.024;13.828;2023-08-01T15:02:03;25.30;77.30
9919;DHT22;4998;51.024;13.828;2023-08-01T15:04:30;25.40;77.30
9919;DHT22;4998;51.024;13.828;2023-08-01T15:06:57;25.40;77.00
9919;DHT22;4998;51.024;13.828;2023-08-01T15:09:24;25.50;76.60
9919;DHT22;4998;51.024;13.828;2023-08-01T15:11:51;25.60;76.60
9919;DHT22;4998;51.024;13.828;2023-08-01T15:14:19;25.60;76.50
9919;DHT22;4998;51.024;13.828;2023-08-01T15:16:46;25.70;76.40
9919;DHT22;4998;51.024;13.828;2023-08-01T15:19:13;25.80;76.40
9919;DHT22;4998;51.024;13.828;2023-08-01T15:21:40;25.90;76.60
9919;DHT22;4998;51.024;13.828;2023-08-01T15:24:08;26.00;76.10
9919;DHT22;4998;51.024;13.828;2023-08-01T15:26:35;26.10;75.70
9919;DHT22;4998;51.024;13.828;2023-08-01T15:29:02;26.20;75.20
9919;DHT22;4998;51.024;13.828;2023-08-01T15:31:30;26.30;75.10
9919;DHT22;4998;51.024;13.828;2023-08-01T15:33:57;26.50;75.20
9919;DHT22;4998;51.024;13.828;2023-08-01T15:36:26;26.60;75.80
9919;DHT22;4998;51.024;13.828;2023-08-01T15:38:54;26.70;74.10
9919;DHT22;4998;51.024;13.828;2023-08-01T15:41:22;26.80;72.80
9919;DHT22;4998;51.024;13.828;2023-08-01T15:43:49;26.80;71.90
9919;DHT22;4998;51.024;13.828;2023-08-01T15:46:16;26.80;71.00
9919;DHT22;4998;51.024;13.828;2023-08-01T15:48:44;26.80;70.40